Sao Joao da Serra, Brazil
Current Conditions -  °F | °C
As of 8:00 PM on Tuesday 25 Nov 2014 (Local Time) from SBTE Reporting Station
Clear Clear  
Wind Chill: 90°   Ceiling: Unl
Heat Index: 91°   Visibility: 6mi
Dew Point: 64°   Wind: 0mph
Humidity: 43%   Direction: NA
Pressure: 29.74"   Gusts: NA
Location:  5.51°S, 41.9°W
Report Text: SBTE 252300Z 00000KT CAVOK 32/18 Q1007
Loading
Personal Weather Stations






























Interactive Weather Map New forecast layout! Learn more

10-Day Weather Forecast

Advertisements
Track Severe Weather on mobile